sensor_id;sensor_type;location;lat;lon;timestamp;pressure;altitude;pressure_sealevel;temperature;humidity
80509;BME280;69838;52.602;13.434;2024-03-07T00:00:38;102018.94;;;4.42;100.00
80509;BME280;69838;52.602;13.434;2024-03-07T00:01:25;102014.47;;;4.40;100.00
80509;BME280;69838;52.602;13.434;2024-03-07T00:02:11;102016.25;;;4.40;100.00
80509;BME280;69838;52.602;13.434;2024-03-07T00:02:57;102017.13;;;4.44;100.00
80509;BME280;69838;52.602;13.434;2024-03-07T00:03:43;102011.78;;;4.37;100.00
80509;BME280;69838;52.602;13.434;2024-03-07T00:04:29;102012.69;;;4.38;100.00
80509;BME280;69838;52.602;13.434;2024-03-07T00:05:15;102016.25;;;4.35;100.00
80509;BME280;69838;52.602;13.434;2024-03-07T00:06:02;102012.69;;;4.33;100.00
80509;BME280;69838;52.602;13.434;2024-03-07T00:06:48;102014.47;;;4.40;100.00
80509;BME280;69838;52.602;13.434;2024-03-07T00:07:34;102014.50;;;4.34;100.00
80509;BME280;69838;52.602;13.434;2024-03-07T00:08:20;102006.47;;;4.30;100.00
80509;BME280;69838;52.602;13.434;2024-03-07T00:09:06;102011.81;;;4.33;100.00
80509;BME280;69838;52.602;13.434;2024-03-07T00:09:56;102009.16;;;4.31;100.00
80509;BME280;69838;52.602;13.434;2024-03-07T00:10:43;102015.38;;;4.32;100.00
80509;BME280;69838;52.602;13.434;2024-03-07T00:11:29;102018.97;;;4.31;100.00
80509;BME280;69838;52.602;13.434;2024-03-07T00:12:15;102011.81;;;4.28;100.00
80509;BME280;69838;52.602;13.434;2024-03-07T00:13:01;102011.81;;;4.31;100.00
80509;BME280;69838;52.602;13.434;2024-03-07T00:13:48;102007.34;;;4.32;100.00
80509;BME280;69838;52.602;13.434;2024-03-07T00:14:34;102017.16;;;4.31;100.00
80509;BME280;69838;52.602;13.434;2024-03-07T00:15:20;102011.81;;;4.31;100.00
80509;BME280;69838;52.602;13.434;2024-03-07T00:16:07;102017.16;;;4.28;100.00
80509;BME280;69838;52.602;13.434;2024-03-07T00:16:54;102017.16;;;4.31;100.00
80509;BME280;69838;52.602;13.434;2024-03-07T00:17:41;102011.81;;;4.34;100.00
80509;BME280;69838;52.602;13.434;2024-03-07T00:18:26;102018.94;;;4.32;100.00
80509;BME280;69838;52.602;13.434;2024-03-07T00:19:12;102011.81;;;4.28;100.00
80509;BME280;69838;52.602;13.434;2024-03-07T00:20:00;102006.44;;;4.37;100.00
80509;BME280;69838;52.602;13.434;2024-03-07T00:20:45;102017.13;;;4.37;100.00
80509;BME280;69838;52.602;13.434;2024-03-07T00:21:31;102016.25;;;4.35;100.00
80509;BME280;69838;52.602;13.434;2024-03-07T00:22:17;102013.59;;;4.35;100.00
80509;BME280;69838;52.602;13.434;2024-03-07T00:23:03;102016.25;;;4.35;100.00
80509;BME280;69838;52.602;13.434;2024-03-07T00:23:48;102020.72;;;4.33;100.00
80509;BME280;69838;52.602;13.434;2024-03-07T00:24:35;102012.69;;;4.35;100.00
80509;BME280;69838;52.602;13.434;2024-03-07T00:25:22;102010.03;;;4.33;100.00
80509;BME280;69838;52.602;13.434;2024-03-07T00:26:08;102020.72;;;4.33;100.00
80509;BME280;69838;52.602;13.434;2024-03-07T00:26:54;102015.38;;;4.33;100.00
80509;BME280;69838;52.602;13.434;2024-03-07T00:27:39;102018.94;;;4.32;100.00
80509;BME280;69838;52.602;13.434;2024-03-07T00:28:26;102018.03;;;4.32;100.00
80509;BME280;69838;52.602;13.434;2024-03-07T00:29:17;102014.50;;;4.33;100.00
80509;BME280;69838;52.602;13.434;2024-03-07T00:30:04;102005.56;;;4.32;100.00
80509;BME280;69838;52.602;13.434;2024-03-07T00:30:50;102017.13;;;4.36;100.00
80509;BME280;69838;52.602;13.434;2024-03-07T00:31:36;102021.59;;;4.34;100.00
80509;BME280;69838;52.602;13.434;2024-03-07T00:32:22;102018.06;;;4.36;100.00
80509;BME280;69838;52.602;13.434;2024-03-07T00:33:08;102026.06;;;4.36;100.00
80509;BME280;69838;52.602;13.434;2024-03-07T00:33:54;102016.25;;;4.37;100.00
80509;BME280;69838;52.602;13.434;2024-03-07T00:34:41;102011.81;;;4.34;100.00
80509;BME280;69838;52.602;13.434;2024-03-07T00:35:27;102018.94;;;4.35;100.00
80509;BME280;69838;52.602;13.434;2024-03-07T00:36:13;102012.69;;;4.32;100.00
80509;BME280;69838;52.602;13.434;2024-03-07T00:36:59;102019.84;;;4.28;100.00
80509;BME280;69838;52.602;13.434;2024-03-07T00:37:44;102015.38;;;4.30;100.00
80509;BME280;69838;52.602;13.434;2024-03-07T00:38:31;102019.84;;;4.27;100.00
80509;BME280;69838;52.602;13.434;2024-03-07T00:39:16;102015.41;;;4.27;100.00
80509;BME280;69838;52.602;13.434;2024-03-07T00:40:03;102014.50;;;4.31;100.00
80509;BME280;69838;52.602;13.434;2024-03-07T00:40:52;102015.38;;;4.30;100.00
80509;BME280;69838;52.602;13.434;2024-03-07T00:41:38;102018.03;;;4.29;100.00
80509;BME280;69838;52.602;13.434;2024-03-07T00:42:23;102018.97;;;4.26;100.00
80509;BME280;69838;52.602;13.434;2024-03-07T00:43:09;102011.81;;;4.27;100.00
80509;BME280;69838;52.602;13.434;2024-03-07T00:43:55;102017.19;;;4.24;100.00
80509;BME280;69838;52.602;13.434;2024-03-07T00:44:41;102017.16;;;4.25;100.00
80509;BME280;69838;52.602;13.434;2024-03-07T00:45:28;102014.50;;;4.27;100.00
80509;BME280;69838;52.602;13.434;2024-03-07T00:46:13;102002.03;;;4.18;100.00
80509;BME280;69838;52.602;13.434;2024-03-07T00:46:59;102012.72;;;4.24;100.00
80509;BME280;69838;52.602;13.434;2024-03-07T00:47:45;102011.81;;;4.25;100.00
80509;BME280;69838;52.602;13.434;2024-03-07T00:48:30;102014.53;;;4.22;100.00
80509;BME280;69838;52.602;13.434;2024-03-07T00:49:16;102017.19;;;4.20;100.00
80509;BME280;69838;52.602;13.434;2024-03-07T00:50:03;102008.25;;;4.25;100.00
80509;BME280;69838;52.602;13.434;2024-03-07T00:50:48;102012.72;;;4.24;100.00
80509;BME280;69838;52.602;13.434;2024-03-07T00:51:34;102013.59;;;4.26;100.00
80509;BME280;69838;52.602;13.434;2024-03-07T00:52:20;102011.81;;;4.27;100.00
80509;BME280;69838;52.602;13.434;2024-03-07T00:53:05;102013.59;;;4.26;100.00
80509;BME280;69838;52.602;13.434;2024-03-07T00:53:51;102006.47;;;4.30;100.00
80509;BME280;69838;52.602;13.434;2024-03-07T00:54:37;102009.16;;;4.27;100.00
80509;BME280;69838;52.602;13.434;2024-03-07T00:55:23;102010.06;;;4.27;100.00
80509;BME280;69838;52.602;13.434;2024-03-07T00:56:11;102009.16;;;4.27;100.00
80509;BME280;69838;52.602;13.434;2024-03-07T00:56:57;102005.59;;;4.26;100.00
80509;BME280;69838;52.602;13.434;2024-03-07T00:57:42;102010.94;;;4.28;100.00
80509;BME280;69838;52.602;13.434;2024-03-07T00:58:28;102016.28;;;4.29;100.00
80509;BME280;69838;52.602;13.434;2024-03-07T00:59:14;102013.59;;;4.29;100.00
80509;BME280;69838;52.602;13.434;2024-03-07T01:00:00;102013.59;;;4.29;100.00
80509;BME280;69838;52.602;13.434;2024-03-07T01:00:46;102012.69;;;4.32;100.00
80509;BME280;69838;52.602;13.434;2024-03-07T01:01:31;102011.81;;;4.30;100.00
80509;BME280;69838;52.602;13.434;2024-03-07T01:02:19;101999.34;;;4.24;100.00
80509;BME280;69838;52.602;13.434;2024-03-07T01:03:05;102007.38;;;4.27;100.00
80509;BME280;69838;52.602;13.434;2024-03-07T01:03:50;102001.13;;;4.31;100.00
80509;BME280;69838;52.602;13.434;2024-03-07T01:04:37;102001.13;;;4.34;100.00
80509;BME280;69838;52.602;13.434;2024-03-07T01:05:22;102010.91;;;4.34;100.00
80509;BME280;69838;52.602;13.434;2024-03-07T01:06:08;102004.69;;;4.30;100.00
80509;BME280;69838;52.602;13.434;2024-03-07T01:06:55;102011.81;;;4.31;100.00
80509;BME280;69838;52.602;13.434;2024-03-07T01:07:40;102010.06;;;4.27;100.00
80509;BME280;69838;52.602;13.434;2024-03-07T01:08:28;102001.13;;;4.25;100.00
80509;BME280;69838;52.602;13.434;2024-03-07T01:09:17;102000.25;;;4.25;100.00
80509;BME280;69838;52.602;13.434;2024-03-07T01:10:05;102003.78;;;4.27;100.00
80509;BME280;69838;52.602;13.434;2024-03-07T01:10:51;102001.13;;;4.25;100.00
80509;BME280;69838;52.602;13.434;2024-03-07T01:11:39;102004.72;;;4.26;100.00
80509;BME280;69838;52.602;13.434;2024-03-07T01:12:25;102001.16;;;4.24;100.00
80509;BME280;69838;52.602;13.434;2024-03-07T01:13:15;102006.50;;;4.22;100.00
80509;BME280;69838;52.602;13.434;2024-03-07T01:14:04;101998.47;;;4.19;100.00
80509;BME280;69838;52.602;13.434;2024-03-07T01:14:49;102002.06;;;4.16;100.00
80509;BME280;69838;52.602;13.434;2024-03-07T01:15:35;102004.69;;;4.18;100.00
80509;BME280;69838;52.602;13.434;2024-03-07T01:16:21;102006.50;;;4.17;100.00
80509;BME280;69838;52.602;13.434;2024-03-07T01:17:07;102001.16;;;4.16;100.00
80509;BME280;69838;52.602;13.434;2024-03-07T01:17:53;102001.16;;;4.16;100.00
80509;BME280;69838;52.602;13.434;2024-03-07T01:18:39;102007.38;;;4.18;100.00
80509;BME280;69838;52.602;13.434;2024-03-07T01:19:24;102002.03;;;4.18;100.00
80509;BME280;69838;52.602;13.434;2024-03-07T01:20:11;102012.75;;;4.16;100.00
80509;BME280;69838;52.602;13.434;2024-03-07T01:20:56;102002.94;;;4.15;100.00
80509;BME280;69838;52.602;13.434;2024-03-07T01:21:42;102002.94;;;4.17;100.00
80509;BME280;69838;52.602;13.434;2024-03-07T01:22:28;102010.97;;;4.15;100.00
80509;BME280;69838;52.602;13.434;2024-03-07T01:23:14;102002.03;;;4.18;100.00
80509;BME280;69838;52.602;13.434;2024-03-07T01:23:59;102002.94;;;4.17;100.00
80509;BME280;69838;52.602;13.434;2024-03-07T01:24:47;102008.28;;;4.17;100.00
80509;BME280;69838;52.602;13.434;2024-03-07T01:25:32;102004.72;;;4.24;100.00
80509;BME280;69838;52.602;13.434;2024-03-07T01:26:19;101999.34;;;4.18;100.00
80509;BME280;69838;52.602;13.434;2024-03-07T01:27:06;102006.50;;;4.19;100.00
80509;BME280;69838;52.602;13.434;2024-03-07T01:27:52;102004.72;;;4.16;100.00
80509;BME280;69838;52.602;13.434;2024-03-07T01:28:38;102004.72;;;4.15;100.00
80509;BME280;69838;52.602;13.434;2024-03-07T01:29:24;102008.28;;;4.14;100.00
80509;BME280;69838;52.602;13.434;2024-03-07T01:30:10;102003.84;;;4.13;100.00
80509;BME280;69838;52.602;13.434;2024-03-07T01:30:57;102013.63;;;4.11;100.00
80509;BME280;69838;52.602;13.434;2024-03-07T01:31:44;102005.63;;;4.08;100.00
80509;BME280;69838;52.602;13.434;2024-03-07T01:32:29;102010.06;;;4.15;100.00
80509;BME280;69838;52.602;13.434;2024-03-07T01:33:15;102006.50;;;4.16;100.00
80509;BME280;69838;52.602;13.434;2024-03-07T01:34:02;102009.16;;;4.14;100.00
80509;BME280;69838;52.602;13.434;2024-03-07T01:34:47;102009.19;;;4.10;100.00
80509;BME280;69838;52.602;13.434;2024-03-07T01:35:33;102005.63;;;4.09;100.00
80509;BME280;69838;52.602;13.434;2024-03-07T01:36:19;102002.97;;;4.08;100.00
80509;BME280;69838;52.602;13.434;2024-03-07T01:37:05;101999.38;;;4.09;100.00
80509;BME280;69838;52.602;13.434;2024-03-07T01:37:53;102007.41;;;4.07;100.00
80509;BME280;69838;52.602;13.434;2024-03-07T01:38:39;102002.97;;;4.08;100.00
80509;BME280;69838;52.602;13.434;2024-03-07T01:39:25;101997.63;;;4.05;100.00
80509;BME280;69838;52.602;13.434;2024-03-07T01:40:12;102000.28;;;4.01;100.00
80509;BME280;69838;52.602;13.434;2024-03-07T01:40:59;102005.63;;;4.01;100.00
80509;BME280;69838;52.602;13.434;2024-03-07T01:41:44;102000.31;;;3.98;100.00
80509;BME280;69838;52.602;13.434;2024-03-07T01:42:33;101999.38;;;3.96;100.00
80509;BME280;69838;52.602;13.434;2024-03-07T01:43:19;101998.53;;;3.91;100.00
80509;BME280;69838;52.602;13.434;2024-03-07T01:44:04;102004.75;;;3.96;100.00
80509;BME280;69838;52.602;13.434;2024-03-07T01:44:51;101998.53;;;3.87;100.00
80509;BME280;69838;52.602;13.434;2024-03-07T01:45:37;102000.31;;;3.88;100.00
80509;BME280;69838;52.602;13.434;2024-03-07T01:46:23;101999.41;;;3.78;100.00
80509;BME280;69838;52.602;13.434;2024-03-07T01:47:09;101998.53;;;3.77;100.00
80509;BME280;69838;52.602;13.434;2024-03-07T01:47:55;102005.66;;;3.75;100.00
80509;BME280;69838;52.602;13.434;2024-03-07T01:48:41;102001.19;;;3.71;100.00
80509;BME280;69838;52.602;13.434;2024-03-07T01:49:27;102004.75;;;3.66;100.00
80509;BME280;69838;52.602;13.434;2024-03-07T01:50:14;102002.09;;;3.58;100.00
80509;BME280;69838;52.602;13.434;2024-03-07T01:51:00;102001.19;;;3.54;100.00
80509;BME280;69838;52.602;13.434;2024-03-07T01:51:48;102000.28;;;3.46;100.00
80509;BME280;69838;52.602;13.434;2024-03-07T01:52:34;102005.63;;;3.38;100.00
80509;BME280;69838;52.602;13.434;2024-03-07T01:53:19;102000.28;;;3.37;100.00
80509;BME280;69838;52.602;13.434;2024-03-07T01:54:08;101998.50;;;3.28;100.00
80509;BME280;69838;52.602;13.434;2024-03-07T01:54:54;102002.94;;;3.18;100.00
80509;BME280;69838;52.602;13.434;2024-03-07T01:55:39;101994.91;;;3.14;100.00
80509;BME280;69838;52.602;13.434;2024-03-07T01:56:26;102002.03;;;3.07;100.00
80509;BME280;69838;52.602;13.434;2024-03-07T01:57:11;101998.44;;;3.05;100.00
80509;BME280;69838;52.602;13.434;2024-03-07T01:58:02;102001.13;;;3.03;100.00
80509;BME280;69838;52.602;13.434;2024-03-07T01:58:49;102005.56;;;3.06;100.00
80509;BME280;69838;52.602;13.434;2024-03-07T01:59:37;101994.00;;;3.10;100.00
80509;BME280;69838;52.602;13.434;2024-03-07T02:00:22;102001.13;;;3.02;100.00
80509;BME280;69838;52.602;13.434;2024-03-07T02:01:09;101993.97;;;2.93;100.00
80509;BME280;69838;52.602;13.434;2024-03-07T02:01:54;102001.06;;;2.85;100.00
80509;BME280;69838;52.602;13.434;2024-03-07T02:02:40;101995.69;;;2.73;100.00
80509;BME280;69838;52.602;13.434;2024-03-07T02:03:27;102001.91;;;2.72;100.00
80509;BME280;69838;52.602;13.434;2024-03-07T02:04:13;101996.56;;;2.64;100.00
80509;BME280;69838;52.602;13.434;2024-03-07T02:04:59;101996.50;;;2.55;100.00
80509;BME280;69838;52.602;13.434;2024-03-07T02:05:46;102000.03;;;2.51;100.00
80509;BME280;69838;52.602;13.434;2024-03-07T02:06:32;101998.25;;;2.46;100.00
80509;BME280;69838;52.602;13.434;2024-03-07T02:07:18;101990.19;;;2.40;100.00
80509;BME280;69838;52.602;13.434;2024-03-07T02:08:05;102007.03;;;2.33;100.00
80509;BME280;69838;52.602;13.434;2024-03-07T02:08:50;101998.16;;;2.33;100.00
80509;BME280;69838;52.602;13.434;2024-03-07T02:09:35;101999.91;;;2.26;100.00
80509;BME280;69838;52.602;13.434;2024-03-07T02:10:22;101995.41;;;2.19;100.00
80509;BME280;69838;52.602;13.434;2024-03-07T02:11:07;101998.06;;;2.19;100.00
80509;BME280;69838;52.602;13.434;2024-03-07T02:11:54;101998.03;;;2.11;100.00
80509;BME280;69838;52.602;13.434;2024-03-07T02:12:41;101991.81;;;2.07;100.00
80509;BME280;69838;52.602;13.434;2024-03-07T02:13:28;101993.56;;;2.05;100.00
80509;BME280;69838;52.602;13.434;2024-03-07T02:14:14;101988.22;;;2.04;100.00
80509;BME280;69838;52.602;13.434;2024-03-07T02:15:00;101990.88;;;2.01;100.00
80509;BME280;69838;52.602;13.434;2024-03-07T02:15:46;101994.44;;;2.01;100.00
80509;BME280;69838;52.602;13.434;2024-03-07T02:16:31;101995.31;;;2.00;100.00
80509;BME280;69838;52.602;13.434;2024-03-07T02:17:17;101993.50;;;1.96;100.00
80509;BME280;69838;52.602;13.434;2024-03-07T02:18:05;101994.41;;;1.97;100.00
80509;BME280;69838;52.602;13.434;2024-03-07T02:18:51;101996.22;;;2.02;100.00
80509;BME280;69838;52.602;13.434;2024-03-07T02:19:36;101993.56;;;2.05;100.00
80509;BME280;69838;52.602;13.434;2024-03-07T02:20:23;101988.22;;;2.02;100.00
80509;BME280;69838;52.602;13.434;2024-03-07T02:21:10;101984.63;;;1.94;100.00
80509;BME280;69838;52.602;13.434;2024-03-07T02:21:55;101992.63;;;1.99;100.00
80509;BME280;69838;52.602;13.434;2024-03-07T02:22:42;101992.59;;;1.91;100.00
80509;BME280;69838;52.602;13.434;2024-03-07T02:23:27;101991.69;;;1.87;100.00
80509;BME280;69838;52.602;13.434;2024-03-07T02:24:13;101996.06;;;1.82;100.00
80509;BME280;69838;52.602;13.434;2024-03-07T02:25:00;101998.72;;;1.81;100.00
80509;BME280;69838;52.602;13.434;2024-03-07T02:25:46;101996.91;;;1.77;100.00
80509;BME280;69838;52.602;13.434;2024-03-07T02:26:31;101993.41;;;1.84;100.00
80509;BME280;69838;52.602;13.434;2024-03-07T02:27:17;101986.25;;;1.74;100.00
80509;BME280;69838;52.602;13.434;2024-03-07T02:28:03;101989.75;;;1.69;100.00
80509;BME280;69838;52.602;13.434;2024-03-07T02:28:50;101996.00;;;1.71;100.00
80509;BME280;69838;52.602;13.434;2024-03-07T02:29:36;101995.13;;;1.73;100.00
80509;BME280;69838;52.602;13.434;2024-03-07T02:30:21;101989.69;;;1.63;100.00
80509;BME280;69838;52.602;13.434;2024-03-07T02:31:07;101993.25;;;1.61;100.00
80509;BME280;69838;52.602;13.434;2024-03-07T02:31:53;101985.25;;;1.61;100.00
80509;BME280;69838;52.602;13.434;2024-03-07T02:32:38;101992.34;;;1.59;100.00
80509;BME280;69838;52.602;13.434;2024-03-07T02:33:24;101987.88;;;1.53;100.00
80509;BME280;69838;52.602;13.434;2024-03-07T02:34:10;101988.72;;;1.52;100.00
80509;BME280;69838;52.602;13.434;2024-03-07T02:34:57;101986.13;;;1.58;100.00
80509;BME280;69838;52.602;13.434;2024-03-07T02:35:42;101990.56;;;1.59;100.00
80509;BME280;69838;52.602;13.434;2024-03-07T02:36:30;101989.63;;;1.54;100.00
80509;BME280;69838;52.602;13.434;2024-03-07T02:37:15;101986.13;;;1.58;100.00
80509;BME280;69838;52.602;13.434;2024-03-07T02:38:02;101990.56;;;1.59;100.00
80509;BME280;69838;52.602;13.434;2024-03-07T02:38:48;101984.34;;;1.57;100.00
80509;BME280;69838;52.602;13.434;2024-03-07T02:39:34;101982.56;;;1.59;100.00
80509;BME280;69838;52.602;13.434;2024-03-07T02:40:20;101978.16;;;1.61;100.00
80509;BME280;69838;52.602;13.434;2024-03-07T02:41:07;101985.19;;;1.56;100.00
80509;BME280;69838;52.602;13.434;2024-03-07T02:41:52;101974.53;;;1.51;100.00
80509;BME280;69838;52.602;13.434;2024-03-07T02:42:37;101978.91;;;1.45;100.00
80509;BME280;69838;52.602;13.434;2024-03-07T02:43:24;101976.19;;;1.37;100.00
80509;BME280;69838;52.602;13.434;2024-03-07T02:44:09;101973.50;;;1.36;100.00
80509;BME280;69838;52.602;13.434;2024-03-07T02:44:55;101969.88;;;1.27;100.00
80509;BME280;69838;52.602;13.434;2024-03-07T02:45:41;101955.53;;;1.13;100.00
80509;BME280;69838;52.602;13.434;2024-03-07T02:46:27;101965.38;;;1.17;100.00
80509;BME280;69838;52.602;13.434;2024-03-07T02:47:12;101969.81;;;1.20;100.00
80509;BME280;69838;52.602;13.434;2024-03-07T02:47:58;101970.72;;;1.23;100.00
80509;BME280;69838;52.602;13.434;2024-03-07T02:48:44;101968.94;;;1.24;100.00
80509;BME280;69838;52.602;13.434;2024-03-07T02:49:29;101970.69;;;1.20;100.00
80509;BME280;69838;52.602;13.434;2024-03-07T02:50:15;101967.13;;;1.15;100.00
80509;BME280;69838;52.602;13.434;2024-03-07T02:51:01;101973.31;;;1.14;100.00
80509;BME280;69838;52.602;13.434;2024-03-07T02:51:48;101971.50;;;1.10;100.00
80509;BME280;69838;52.602;13.434;2024-03-07T02:52:34;101972.34;;;1.07;100.00
80509;BME280;69838;52.602;13.434;2024-03-07T02:53:20;101976.72;;;1.01;100.00
80509;BME280;69838;52.602;13.434;2024-03-07T02:54:05;101974.91;;;0.98;100.00
80509;BME280;69838;52.602;13.434;2024-03-07T02:54:51;101974.88;;;0.97;100.00
80509;BME280;69838;52.602;13.434;2024-03-07T02:55:37;101967.75;;;0.92;100.00
80509;BME280;69838;52.602;13.434;2024-03-07T02:56:23;101973.03;;;0.89;100.00
80509;BME280;69838;52.602;13.434;2024-03-07T02:57:08;101976.50;;;0.82;100.00
80509;BME280;69838;52.602;13.434;2024-03-07T02:57:56;101972.91;;;0.77;100.00
80509;BME280;69838;52.602;13.434;2024-03-07T02:58:45;101977.31;;;0.72;100.00
80509;BME280;69838;52.602;13.434;2024-03-07T02:59:31;101977.22;;;0.66;100.00
80509;BME280;69838;52.602;13.434;2024-03-07T03:00:17;101974.50;;;0.63;100.00
80509;BME280;69838;52.602;13.434;2024-03-07T03:01:05;101970.13;;;0.65;100.00
80509;BME280;69838;52.602;13.434;2024-03-07T03:01:52;101968.25;;;0.59;100.00
80509;BME280;69838;52.602;13.434;2024-03-07T03:02:37;101971.84;;;0.60;100.00
80509;BME280;69838;52.602;13.434;2024-03-07T03:03:23;101970.84;;;0.51;100.00
80509;BME280;69838;52.602;13.434;2024-03-07T03:04:09;101962.78;;;0.44;100.00
80509;BME280;69838;52.602;13.434;2024-03-07T03:04:54;101970.69;;;0.39;100.00
80509;BME280;69838;52.602;13.434;2024-03-07T03:05:40;101974.25;;;0.41;100.00
80509;BME280;69838;52.602;13.434;2024-03-07T03:06:26;101968.91;;;0.38;100.00
80509;BME280;69838;52.602;13.434;2024-03-07T03:07:13;101965.34;;;0.39;100.00
80509;BME280;69838;52.602;13.434;2024-03-07T03:07:58;101968.84;;;0.35;100.00
80509;BME280;69838;52.602;13.434;2024-03-07T03:08:45;101961.63;;;0.22;100.00
80509;BME280;69838;52.602;13.434;2024-03-07T03:09:30;101956.25;;;0.18;100.00
80509;BME280;69838;52.602;13.434;2024-03-07T03:10:19;101973.25;;;0.33;100.00
80509;BME280;69838;52.602;13.434;2024-03-07T03:11:06;101976.72;;;0.26;100.00
80509;BME280;69838;52.602;13.434;2024-03-07T03:11:54;101971.34;;;0.23;100.00
80509;BME280;69838;52.602;13.434;2024-03-07T03:12:40;101974.09;;;0.29;100.00
80509;BME280;69838;52.602;13.434;2024-03-07T03:13:26;101983.69;;;0.19;100.00
80509;BME280;69838;52.602;13.434;2024-03-07T03:14:12;101976.63;;;0.21;100.00
80509;BME280;69838;52.602;13.434;2024-03-07T03:14:59;101973.13;;;0.22;100.00
80509;BME280;69838;52.602;13.434;2024-03-07T03:15:45;101978.38;;;0.19;100.00
80509;BME280;69838;52.602;13.434;2024-03-07T03:16:30;101980.19;;;0.23;100.00
80509;BME280;69838;52.602;13.434;2024-03-07T03:17:17;101982.88;;;0.22;100.00
80509;BME280;69838;52.602;13.434;2024-03-07T03:18:03;101981.13;;;0.24;100.00
80509;BME280;69838;52.602;13.434;2024-03-07T03:18:49;101983.78;;;0.25;100.00
80509;BME280;69838;52.602;13.434;2024-03-07T03:19:35;101975.78;;;0.22;100.00
80509;BME280;69838;52.602;13.434;2024-03-07T03:20:21;101976.75;;;0.27;100.00
80509;BME280;69838;52.602;13.434;2024-03-07T03:21:09;101983.78;;;0.27;100.00
80509;BME280;69838;52.602;13.434;2024-03-07T03:21:56;101986.44;;;0.27;100.00
80509;BME280;69838;52.602;13.434;2024-03-07T03:22:43;101984.72;;;0.29;100.00
80509;BME280;69838;52.602;13.434;2024-03-07T03:23:29;101974.97;;;0.28;100.00
80509;BME280;69838;52.602;13.434;2024-03-07T03:24:15;101977.66;;;0.31;100.00
80509;BME280;69838;52.602;13.434;2024-03-07T03:25:01;101981.13;;;0.24;100.00
80509;BME280;69838;52.602;13.434;2024-03-07T03:25:47;101983.78;;;0.24;100.00
80509;BME280;69838;52.602;13.434;2024-03-07T03:26:34;101981.94;;;0.18;100.00
80509;BME280;69838;52.602;13.434;2024-03-07T03:27:21;101988.13;;;0.18;100.00
80509;BME280;69838;52.602;13.434;2024-03-07T03:28:07;101981.91;;;0.19;100.00
80509;BME280;69838;52.602;13.434;2024-03-07T03:28:55;101976.69;;;0.24;100.00
80509;BME280;69838;52.602;13.434;2024-03-07T03:29:40;101981.13;;;0.24;100.00
80509;BME280;69838;52.602;13.434;2024-03-07T03:30:26;101984.63;;;0.23;100.00
80509;BME280;69838;52.602;13.434;2024-03-07T03:31:12;101986.31;;;0.14;100.00
80509;BME280;69838;52.602;13.434;2024-03-07T03:31:59;101985.38;;;0.14;100.00
80509;BME280;69838;52.602;13.434;2024-03-07T03:32:45;101981.84;;;0.13;100.00
80509;BME280;69838;52.602;13.434;2024-03-07T03:33:31;101984.44;;;0.10;100.00
80509;BME280;69838;52.602;13.434;2024-03-07T03:34:18;101984.56;;;0.16;100.00
80509;BME280;69838;52.602;13.434;2024-03-07T03:35:04;101982.72;;;0.12;100.00
80509;BME280;69838;52.602;13.434;2024-03-07T03:35:50;101990.66;;;0.12;100.00
80509;BME280;69838;52.602;13.434;2024-03-07T03:36:36;101984.56;;;0.19;100.00
80509;BME280;69838;52.602;13.434;2024-03-07T03:37:22;101981.84;;;0.13;100.00
80509;BME280;69838;52.602;13.434;2024-03-07T03:38:08;101989.75;;;0.10;100.00
80509;BME280;69838;52.602;13.434;2024-03-07T03:38:55;101988.13;;;0.18;100.00
80509;BME280;69838;52.602;13.434;2024-03-07T03:39:41;101998.81;;;0.22;100.00
80509;BME280;69838;52.602;13.434;2024-03-07T03:40:28;101992.56;;;0.18;100.00
80509;BME280;69838;52.602;13.434;2024-03-07T03:41:15;101991.63;;;0.17;100.00
80509;BME280;69838;52.602;13.434;2024-03-07T03:42:00;101995.97;;;0.12;100.00
80509;BME280;69838;52.602;13.434;2024-03-07T03:42:46;101990.91;;;0.28;100.00
80509;BME280;69838;52.602;13.434;2024-03-07T03:43:33;101992.72;;;0.32;100.00
80509;BME280;69838;52.602;13.434;2024-03-07T03:44:19;101991.84;;;0.33;100.00
80509;BME280;69838;52.602;13.434;2024-03-07T03:45:06;101993.59;;;0.31;100.00
80509;BME280;69838;52.602;13.434;2024-03-07T03:45:53;101991.75;;;0.27;100.00
80509;BME280;69838;52.602;13.434;2024-03-07T03:46:38;101996.16;;;0.25;100.00
80509;BME280;69838;52.602;13.434;2024-03-07T03:47:23;101991.75;;;0.24;100.00
80509;BME280;69838;52.602;13.434;2024-03-07T03:48:10;101990.00;;;0.26;100.00
80509;BME280;69838;52.602;13.434;2024-03-07T03:48:55;101989.94;;;0.23;100.00
80509;BME280;69838;52.602;13.434;2024-03-07T03:49:42;101993.47;;;0.22;100.00
80509;BME280;69838;52.602;13.434;2024-03-07T03:50:28;101993.47;;;0.22;100.00
80509;BME280;69838;52.602;13.434;2024-03-07T03:51:13;101997.81;;;0.15;100.00
80509;BME280;69838;52.602;13.434;2024-03-07T03:52:00;102003.13;;;0.15;100.00
80509;BME280;69838;52.602;13.434;2024-03-07T03:52:46;101990.88;;;0.26;100.00
80509;BME280;69838;52.602;13.434;2024-03-07T03:53:32;101986.25;;;0.11;100.00
80509;BME280;69838;52.602;13.434;2024-03-07T03:54:19;101998.63;;;0.12;100.00
80509;BME280;69838;52.602;13.434;2024-03-07T03:55:05;101993.19;;;0.03;100.00
80509;BME280;69838;52.602;13.434;2024-03-07T03:55:50;101996.66;;;-0.03;100.00
80509;BME280;69838;52.602;13.434;2024-03-07T03:56:37;101997.53;;;-0.05;100.00
80509;BME280;69838;52.602;13.434;2024-03-07T03:57:24;101994.88;;;-0.02;100.00
80509;BME280;69838;52.602;13.434;2024-03-07T03:58:10;101994.03;;;-0.01;100.00
80509;BME280;69838;52.602;13.434;2024-03-07T03:58:55;101994.88;;;-0.05;100.00